Pelzer, South Carolina
Current Conditions -  °F | °C
As of 9:47 AM on Thursday 23 Oct 2014 (Local Time) from KGYH Reporting Station
Clear Clear  
Wind Chill: 52°   Ceiling: Unl
Heat Index: 52°   Visibility: 10mi
Dew Point: 36°   Wind: 3mph
Humidity: 54%   Direction: 330°NNW
Pressure: 30.11"   Gusts: NA
Location:  34.64°N, 82.46°W
Report Text: KGYH 231347Z 33003KT 10SM CLR 11/02 A3011
Loading
Personal Weather Stations






























Interactive Weather Map New forecast layout! Learn more

10-Day Weather Forecast

Advertisements
Track Severe Weather on mobile